sensor_id;sensor_type;location;lat;lon;timestamp;pressure;altitude;pressure_sealevel;temperature;humidity
50349;BME280;36250;48.740;22.174;2023-05-10T00:01:26;100998.66;;;10.13;50.18
50349;BME280;36250;48.740;22.174;2023-05-10T00:03:52;100998.56;;;10.02;51.05
50349;BME280;36250;48.740;22.174;2023-05-10T00:06:17;100994.69;;;9.91;52.08
50349;BME280;36250;48.740;22.174;2023-05-10T00:08:43;100992.19;;;9.71;52.12
50349;BME280;36250;48.740;22.174;2023-05-10T00:11:08;100998.97;;;9.62;51.96
50349;BME280;36250;48.740;22.174;2023-05-10T00:13:33;100994.75;;;9.66;51.56
50349;BME280;36250;48.740;22.174;2023-05-10T00:15:59;100990.31;;;9.72;51.73
50349;BME280;36250;48.740;22.174;2023-05-10T00:18:24;100984.78;;;9.60;52.98
50349;BME280;36250;48.740;22.174;2023-05-10T00:20:50;100979.72;;;9.46;53.63
50349;BME280;36250;48.740;22.174;2023-05-10T00:23:15;100985.81;;;9.41;54.06
50349;BME280;36250;48.740;22.174;2023-05-10T00:25:40;100975.66;;;9.30;54.24
50349;BME280;36250;48.740;22.174;2023-05-10T00:28:06;100982.59;;;9.26;54.02
50349;BME280;36250;48.740;22.174;2023-05-10T00:30:31;100982.44;;;9.21;54.66
50349;BME280;36250;48.740;22.174;2023-05-10T00:32:56;100990.78;;;9.19;55.28
50349;BME280;36250;48.740;22.174;2023-05-10T00:35:22;100975.78;;;9.17;55.19
50349;BME280;36250;48.740;22.174;2023-05-10T00:37:48;100981.19;;;9.17;54.69
50349;BME280;36250;48.740;22.174;2023-05-10T00:40:13;100983.13;;;9.16;54.47
50349;BME280;36250;48.740;22.174;2023-05-10T00:42:39;100979.28;;;9.24;54.18
50349;BME280;36250;48.740;22.174;2023-05-10T00:45:05;100973.34;;;9.34;53.92
50349;BME280;36250;48.740;22.174;2023-05-10T00:47:31;100976.44;;;9.37;53.67
50349;BME280;36250;48.740;22.174;2023-05-10T00:49:56;100972.66;;;9.38;53.11
50349;BME280;36250;48.740;22.174;2023-05-10T00:52:22;100968.97;;;9.33;52.96
50349;BME280;36250;48.740;22.174;2023-05-10T00:54:50;100980.31;;;9.23;53.20
50349;BME280;36250;48.740;22.174;2023-05-10T00:57:16;100978.28;;;9.18;53.09
50349;BME280;36250;48.740;22.174;2023-05-10T00:59:42;100982.22;;;9.22;53.44
50349;BME280;36250;48.740;22.174;2023-05-10T01:02:07;100976.34;;;9.25;52.86
50349;BME280;36250;48.740;22.174;2023-05-10T01:04:33;100977.22;;;9.19;52.74
50349;BME280;36250;48.740;22.174;2023-05-10T01:06:58;100977.00;;;9.21;52.82
50349;BME280;36250;48.740;22.174;2023-05-10T01:09:24;100974.97;;;9.16;53.04
50349;BME280;36250;48.740;22.174;2023-05-10T01:11:51;100975.56;;;9.18;53.07
50349;BME280;36250;48.740;22.174;2023-05-10T01:14:18;100966.16;;;9.21;53.21
50349;BME280;36250;48.740;22.174;2023-05-10T01:16:46;100968.25;;;9.19;53.19
50349;BME280;36250;48.740;22.174;2023-05-10T01:19:24;100969.56;;;9.10;53.94
50349;BME280;36250;48.740;22.174;2023-05-10T01:25:11;100961.25;;;9.05;54.09
50349;BME280;36250;48.740;22.174;2023-05-10T01:38:58;100962.44;;;9.15;53.82
50349;BME280;36250;48.740;22.174;2023-05-10T01:44:24;100966.47;;;9.31;53.32
50349;BME280;36250;48.740;22.174;2023-05-10T01:47:03;100959.63;;;9.47;53.15
50349;BME280;36250;48.740;22.174;2023-05-10T01:49:34;100954.78;;;9.49;52.21
50349;BME280;36250;48.740;22.174;2023-05-10T01:52:06;100956.22;;;9.51;52.67
50349;BME280;36250;48.740;22.174;2023-05-10T01:54:34;100951.72;;;9.63;52.30
50349;BME280;36250;48.740;22.174;2023-05-10T01:57:03;100953.00;;;9.79;52.04
50349;BME280;36250;48.740;22.174;2023-05-10T01:59:33;100947.41;;;9.92;51.87
50349;BME280;36250;48.740;22.174;2023-05-10T02:02:02;100946.13;;;9.95;51.00
50349;BME280;36250;48.740;22.174;2023-05-10T02:04:30;100953.69;;;9.93;51.14
50349;BME280;36250;48.740;22.174;2023-05-10T02:06:56;100949.59;;;10.02;51.75
50349;BME280;36250;48.740;22.174;2023-05-10T02:09:23;100942.03;;;10.04;51.19
50349;BME280;36250;48.740;22.174;2023-05-10T02:11:51;100941.78;;;10.05;51.09
50349;BME280;36250;48.740;22.174;2023-05-10T02:14:18;100937.97;;;10.13;50.55
50349;BME280;36250;48.740;22.174;2023-05-10T02:16:44;100944.47;;;10.12;51.27
50349;BME280;36250;48.740;22.174;2023-05-10T02:19:11;100933.75;;;10.17;50.22
50349;BME280;36250;48.740;22.174;2023-05-10T02:21:39;100924.56;;;10.11;51.13
50349;BME280;36250;48.740;22.174;2023-05-10T02:24:05;100932.69;;;10.00;51.36
50349;BME280;36250;48.740;22.174;2023-05-10T02:26:32;100940.69;;;9.95;52.13
50349;BME280;36250;48.740;22.174;2023-05-10T02:29:00;100930.41;;;9.97;51.27
50349;BME280;36250;48.740;22.174;2023-05-10T02:31:28;100937.72;;;9.96;51.57
50349;BME280;36250;48.740;22.174;2023-05-10T02:33:55;100934.31;;;10.01;51.48
50349;BME280;36250;48.740;22.174;2023-05-10T02:36:21;100937.63;;;10.03;51.34
50349;BME280;36250;48.740;22.174;2023-05-10T02:38:48;100926.66;;;9.98;51.54
50349;BME280;36250;48.740;22.174;2023-05-10T02:41:15;100927.84;;;9.83;51.01
50349;BME280;36250;48.740;22.174;2023-05-10T02:43:41;100923.34;;;9.77;52.00
50349;BME280;36250;48.740;22.174;2023-05-10T02:46:07;100925.06;;;9.72;52.17
50349;BME280;36250;48.740;22.174;2023-05-10T02:48:32;100930.78;;;9.64;52.56
50349;BME280;36250;48.740;22.174;2023-05-10T02:51:04;100923.31;;;9.59;52.67
50349;BME280;36250;48.740;22.174;2023-05-10T02:53:35;100934.03;;;9.54;52.90
50349;BME280;36250;48.740;22.174;2023-05-10T02:56:04;100927.16;;;9.52;52.49
50349;BME280;36250;48.740;22.174;2023-05-10T02:58:32;100930.28;;;9.55;52.91
50349;BME280;36250;48.740;22.174;2023-05-10T03:00:57;100931.16;;;9.49;52.82
50349;BME280;36250;48.740;22.174;2023-05-10T03:03:23;100929.03;;;9.51;53.05
50349;BME280;36250;48.740;22.174;2023-05-10T03:05:48;100925.66;;;9.56;53.11
50349;BME280;36250;48.740;22.174;2023-05-10T03:08:14;100926.28;;;9.58;53.42
50349;BME280;36250;48.740;22.174;2023-05-10T03:10:55;100925.66;;;9.56;53.25
50349;BME280;36250;48.740;22.174;2023-05-10T03:13:42;100929.19;;;9.56;53.40
50349;BME280;36250;48.740;22.174;2023-05-10T03:16:14;100927.91;;;9.59;53.84
50349;BME280;36250;48.740;22.174;2023-05-10T03:18:44;100920.16;;;9.62;52.42
50349;BME280;36250;48.740;22.174;2023-05-10T03:21:13;100923.19;;;9.72;51.80
50349;BME280;36250;48.740;22.174;2023-05-10T03:23:43;100921.81;;;9.81;51.81
50349;BME280;36250;48.740;22.174;2023-05-10T03:26:12;100920.28;;;9.85;51.43
50349;BME280;36250;48.740;22.174;2023-05-10T03:28:41;100921.06;;;9.93;50.93
50349;BME280;36250;48.740;22.174;2023-05-10T03:31:07;100911.97;;;9.99;50.98
50349;BME280;36250;48.740;22.174;2023-05-10T03:33:32;100919.28;;;9.98;51.22
50349;BME280;36250;48.740;22.174;2023-05-10T03:35:58;100919.53;;;9.97;51.00
50349;BME280;36250;48.740;22.174;2023-05-10T03:38:23;100912.41;;;9.96;51.42
50349;BME280;36250;48.740;22.174;2023-05-10T03:40:48;100915.53;;;9.99;51.26
50349;BME280;36250;48.740;22.174;2023-05-10T03:43:14;100907.13;;;10.01;51.00
50349;BME280;36250;48.740;22.174;2023-05-10T03:45:39;100909.00;;;10.00;50.98
50349;BME280;36250;48.740;22.174;2023-05-10T03:48:05;100909.16;;;10.05;50.69
50349;BME280;36250;48.740;22.174;2023-05-10T03:50:30;100913.78;;;10.05;50.88
50349;BME280;36250;48.740;22.174;2023-05-10T03:52:55;100902.28;;;10.03;51.54
50349;BME280;36250;48.740;22.174;2023-05-10T03:55:22;100915.41;;;10.12;51.49
50349;BME280;36250;48.740;22.174;2023-05-10T03:57:47;100906.69;;;10.22;51.08
50349;BME280;36250;48.740;22.174;2023-05-10T04:00:14;100919.72;;;10.31;50.65
50349;BME280;36250;48.740;22.174;2023-05-10T04:02:40;100919.16;;;10.41;51.09
50349;BME280;36250;48.740;22.174;2023-05-10T04:05:05;100916.09;;;10.49;50.84
50349;BME280;36250;48.740;22.174;2023-05-10T04:07:31;100916.84;;;10.56;50.30
50349;BME280;36250;48.740;22.174;2023-05-10T04:09:56;100922.53;;;10.66;49.79
50349;BME280;36250;48.740;22.174;2023-05-10T04:12:22;100924.09;;;10.74;49.54
50349;BME280;36250;48.740;22.174;2023-05-10T04:14:47;100921.88;;;10.82;49.27
50349;BME280;36250;48.740;22.174;2023-05-10T04:17:13;100919.41;;;10.92;49.57
50349;BME280;36250;48.740;22.174;2023-05-10T04:19:38;100925.09;;;11.02;49.19
50349;BME280;36250;48.740;22.174;2023-05-10T04:22:03;100921.22;;;11.10;48.74
50349;BME280;36250;48.740;22.174;2023-05-10T04:24:29;100917.06;;;11.19;48.89
50349;BME280;36250;48.740;22.174;2023-05-10T04:26:55;100924.97;;;11.20;50.49
50349;BME280;36250;48.740;22.174;2023-05-10T04:29:20;100926.38;;;10.88;51.77
50349;BME280;36250;48.740;22.174;2023-05-10T04:31:46;100930.69;;;10.66;52.39
50349;BME280;36250;48.740;22.174;2023-05-10T04:34:11;100935.94;;;10.68;53.22
50349;BME280;36250;48.740;22.174;2023-05-10T04:36:36;100941.25;;;10.74;54.37
50349;BME280;36250;48.740;22.174;2023-05-10T04:39:03;100938.53;;;10.74;53.11
50349;BME280;36250;48.740;22.174;2023-05-10T04:41:28;100932.03;;;10.75;53.39
50349;BME280;36250;48.740;22.174;2023-05-10T04:43:53;100940.94;;;10.82;52.25
50349;BME280;36250;48.740;22.174;2023-05-10T04:46:19;100933.50;;;10.89;51.38
50349;BME280;36250;48.740;22.174;2023-05-10T04:48:44;100936.47;;;10.99;52.29
50349;BME280;36250;48.740;22.174;2023-05-10T04:51:11;100935.03;;;11.08;51.67
50349;BME280;36250;48.740;22.174;2023-05-10T04:53:36;100931.53;;;11.19;51.96
50349;BME280;36250;48.740;22.174;2023-05-10T04:56:01;100937.66;;;11.38;51.61
50349;BME280;36250;48.740;22.174;2023-05-10T04:58:27;100927.34;;;11.52;50.62
50349;BME280;36250;48.740;22.174;2023-05-10T05:00:52;100933.13;;;11.67;50.89
50349;BME280;36250;48.740;22.174;2023-05-10T05:03:17;100924.25;;;11.83;50.02
50349;BME280;36250;48.740;22.174;2023-05-10T05:05:43;100925.97;;;12.01;49.41
50349;BME280;36250;48.740;22.174;2023-05-10T05:08:09;100926.53;;;12.14;48.35
50349;BME280;36250;48.740;22.174;2023-05-10T05:10:35;100927.41;;;12.31;48.40
50349;BME280;36250;48.740;22.174;2023-05-10T05:13:00;100938.63;;;12.46;48.19
50349;BME280;36250;48.740;22.174;2023-05-10T05:15:25;100926.31;;;12.61;48.62
50349;BME280;36250;48.740;22.174;2023-05-10T05:17:51;100920.38;;;12.64;48.31
50349;BME280;36250;48.740;22.174;2023-05-10T05:20:16;100923.88;;;12.76;49.19
50349;BME280;36250;48.740;22.174;2023-05-10T05:22:42;100924.72;;;12.93;48.64
50349;BME280;36250;48.740;22.174;2023-05-10T05:25:08;100918.31;;;13.04;47.74
50349;BME280;36250;48.740;22.174;2023-05-10T05:27:33;100923.06;;;13.08;46.07
50349;BME280;36250;48.740;22.174;2023-05-10T05:29:59;100926.06;;;13.07;45.35
50349;BME280;36250;48.740;22.174;2023-05-10T05:32:25;100926.53;;;13.21;46.63
50349;BME280;36250;48.740;22.174;2023-05-10T05:34:50;100926.00;;;13.40;45.35
50349;BME280;36250;48.740;22.174;2023-05-10T05:37:17;100918.03;;;13.55;45.20
50349;BME280;36250;48.740;22.174;2023-05-10T05:39:43;100913.84;;;13.69;44.55
50349;BME280;36250;48.740;22.174;2023-05-10T05:42:09;100916.78;;;13.84;44.31
50349;BME280;36250;48.740;22.174;2023-05-10T05:44:35;100916.41;;;13.98;43.23
50349;BME280;36250;48.740;22.174;2023-05-10T05:47:00;100910.72;;;14.04;43.27
50349;BME280;36250;48.740;22.174;2023-05-10T05:49:26;100912.41;;;14.05;42.56
50349;BME280;36250;48.740;22.174;2023-05-10T05:51:51;100920.97;;;14.14;42.53
50349;BME280;36250;48.740;22.174;2023-05-10T05:54:16;100919.19;;;14.24;42.28
50349;BME280;36250;48.740;22.174;2023-05-10T05:56:42;100911.13;;;14.34;42.44
50349;BME280;36250;48.740;22.174;2023-05-10T05:59:07;100915.94;;;14.49;42.60
50349;BME280;36250;48.740;22.174;2023-05-10T06:01:33;100917.69;;;14.60;42.43
50349;BME280;36250;48.740;22.174;2023-05-10T06:03:58;100908.34;;;14.56;40.68
50349;BME280;36250;48.740;22.174;2023-05-10T06:06:23;100916.81;;;14.55;40.85
50349;BME280;36250;48.740;22.174;2023-05-10T06:08:49;100903.69;;;14.57;42.47
50349;BME280;36250;48.740;22.174;2023-05-10T06:11:14;100909.56;;;14.70;42.80
50349;BME280;36250;48.740;22.174;2023-05-10T06:13:39;100903.34;;;14.80;39.67
50349;BME280;36250;48.740;22.174;2023-05-10T06:16:05;100906.13;;;14.85;38.53
50349;BME280;36250;48.740;22.174;2023-05-10T06:18:30;100907.56;;;14.92;39.68
50349;BME280;36250;48.740;22.174;2023-05-10T06:20:56;100909.84;;;15.00;39.33
50349;BME280;36250;48.740;22.174;2023-05-10T06:23:22;100907.88;;;14.96;38.58
50349;BME280;36250;48.740;22.174;2023-05-10T06:25:48;100904.56;;;14.94;38.23
50349;BME280;36250;48.740;22.174;2023-05-10T06:28:13;100905.97;;;14.96;39.00
50349;BME280;36250;48.740;22.174;2023-05-10T06:30:38;100912.09;;;15.08;38.37
50349;BME280;36250;48.740;22.174;2023-05-10T06:33:04;100914.88;;;15.19;39.10
50349;BME280;36250;48.740;22.174;2023-05-10T06:35:30;100916.84;;;15.18;38.52
50349;BME280;36250;48.740;22.174;2023-05-10T06:37:56;100905.03;;;15.18;37.87
50349;BME280;36250;48.740;22.174;2023-05-10T06:40:21;100913.03;;;15.24;38.06
50349;BME280;36250;48.740;22.174;2023-05-10T06:42:47;100917.44;;;15.25;37.73
50349;BME280;36250;48.740;22.174;2023-05-10T06:45:13;100910.88;;;15.31;37.86
50349;BME280;36250;48.740;22.174;2023-05-10T06:47:39;100916.91;;;15.28;37.64
50349;BME280;36250;48.740;22.174;2023-05-10T06:50:06;100914.44;;;15.32;37.97
50349;BME280;36250;48.740;22.174;2023-05-10T06:52:31;100919.44;;;15.40;38.36
50349;BME280;36250;48.740;22.174;2023-05-10T06:54:57;100919.03;;;15.58;37.83
50349;BME280;36250;48.740;22.174;2023-05-10T06:57:22;100913.88;;;15.66;37.75
50349;BME280;36250;48.740;22.174;2023-05-10T06:59:48;100911.38;;;15.60;37.73
50349;BME280;36250;48.740;22.174;2023-05-10T07:02:13;100914.72;;;15.67;37.42
50349;BME280;36250;48.740;22.174;2023-05-10T07:04:40;100914.69;;;15.62;37.03
50349;BME280;36250;48.740;22.174;2023-05-10T07:07:05;100918.25;;;15.67;38.53
50349;BME280;36250;48.740;22.174;2023-05-10T07:09:30;100921.63;;;15.85;38.22
50349;BME280;36250;48.740;22.174;2023-05-10T07:11:56;100922.00;;;15.98;37.95
50349;BME280;36250;48.740;22.174;2023-05-10T07:14:22;100912.16;;;16.12;37.35
50349;BME280;36250;48.740;22.174;2023-05-10T07:16:48;100916.59;;;16.18;37.84
50349;BME280;36250;48.740;22.174;2023-05-10T07:19:13;100920.72;;;16.21;36.40
50349;BME280;36250;48.740;22.174;2023-05-10T07:21:39;100915.44;;;16.14;36.61
50349;BME280;36250;48.740;22.174;2023-05-10T07:24:05;100910.81;;;16.20;36.42
50349;BME280;36250;48.740;22.174;2023-05-10T07:26:31;100921.00;;;16.29;36.09
50349;BME280;36250;48.740;22.174;2023-05-10T07:28:56;100911.09;;;16.33;36.92
50349;BME280;36250;48.740;22.174;2023-05-10T07:31:22;100914.13;;;16.32;36.08
50349;BME280;36250;48.740;22.174;2023-05-10T07:33:47;100918.25;;;16.29;35.43
50349;BME280;36250;48.740;22.174;2023-05-10T07:36:12;100914.38;;;16.20;36.28
50349;BME280;36250;48.740;22.174;2023-05-10T07:38:38;100915.50;;;16.34;36.00
50349;BME280;36250;48.740;22.174;2023-05-10T07:41:03;100921.88;;;16.45;35.72
50349;BME280;36250;48.740;22.174;2023-05-10T07:43:28;100921.56;;;16.41;35.52
50349;BME280;36250;48.740;22.174;2023-05-10T07:45:54;100915.53;;;16.39;35.24
50349;BME280;36250;48.740;22.174;2023-05-10T07:48:19;100910.88;;;16.45;35.79
50349;BME280;36250;48.740;22.174;2023-05-10T07:50:44;100915.88;;;16.58;36.62
50349;BME280;36250;48.740;22.174;2023-05-10T07:53:10;100913.97;;;16.74;34.96
50349;BME280;36250;48.740;22.174;2023-05-10T07:55:35;100916.19;;;16.72;35.35
50349;BME280;36250;48.740;22.174;2023-05-10T07:58:01;100912.31;;;16.73;35.30
50349;BME280;36250;48.740;22.174;2023-05-10T08:00:26;100907.66;;;16.78;35.26
50349;BME280;36250;48.740;22.174;2023-05-10T08:02:51;100912.34;;;16.93;36.23
50349;BME280;36250;48.740;22.174;2023-05-10T08:05:17;100907.94;;;16.77;34.96
50349;BME280;36250;48.740;22.174;2023-05-10T08:07:43;100905.72;;;16.79;35.80
50349;BME280;36250;48.740;22.174;2023-05-10T08:10:09;100914.00;;;16.84;34.72
50349;BME280;36250;48.740;22.174;2023-05-10T08:12:36;100915.09;;;16.88;35.61
50349;BME280;36250;48.740;22.174;2023-05-10T08:15:01;100910.97;;;17.05;35.30
50349;BME280;36250;48.740;22.174;2023-05-10T08:17:27;100909.59;;;17.08;34.46
50349;BME280;36250;48.740;22.174;2023-05-10T08:19:52;100909.03;;;17.16;35.55
50349;BME280;36250;48.740;22.174;2023-05-10T08:22:17;100914.78;;;17.25;34.44
50349;BME280;36250;48.740;22.174;2023-05-10T08:24:43;100917.25;;;17.31;34.83
50349;BME280;36250;48.740;22.174;2023-05-10T08:27:08;100918.38;;;17.40;34.58
50349;BME280;36250;48.740;22.174;2023-05-10T08:29:34;100918.09;;;17.32;35.67
50349;BME280;36250;48.740;22.174;2023-05-10T08:31:59;100916.16;;;17.42;34.42
50349;BME280;36250;48.740;22.174;2023-05-10T08:34:26;100918.34;;;17.45;34.51
50349;BME280;36250;48.740;22.174;2023-05-10T08:36:51;100911.19;;;17.59;34.64
50349;BME280;36250;48.740;22.174;2023-05-10T08:39:17;100911.72;;;17.71;34.65
50349;BME280;36250;48.740;22.174;2023-05-10T08:41:44;100906.72;;;17.84;34.28
50349;BME280;36250;48.740;22.174;2023-05-10T08:44:10;100912.81;;;17.70;34.43
50349;BME280;36250;48.740;22.174;2023-05-10T08:46:36;100905.34;;;17.76;34.24
50349;BME280;36250;48.740;22.174;2023-05-10T08:49:06;100910.03;;;17.76;34.07
50349;BME280;36250;48.740;22.174;2023-05-10T08:51:36;100916.91;;;17.83;33.87
50349;BME280;36250;48.740;22.174;2023-05-10T08:54:03;100908.94;;;17.77;33.50
50349;BME280;36250;48.740;22.174;2023-05-10T08:56:28;100911.69;;;17.77;33.94
50349;BME280;36250;48.740;22.174;2023-05-10T08:58:54;100905.31;;;17.86;34.08
50349;BME280;36250;48.740;22.174;2023-05-10T09:01:21;100906.13;;;17.97;34.94
50349;BME280;36250;48.740;22.174;2023-05-10T09:03:46;100902.28;;;17.88;34.08
50349;BME280;36250;48.740;22.174;2023-05-10T09:06:13;100904.47;;;17.96;34.76
50349;BME280;36250;48.740;22.174;2023-05-10T09:08:39;100904.94;;;18.13;34.01
50349;BME280;36250;48.740;22.174;2023-05-10T09:11:06;100904.06;;;18.22;32.94
50349;BME280;36250;48.740;22.174;2023-05-10T09:13:32;100900.72;;;18.30;32.97
50349;BME280;36250;48.740;22.174;2023-05-10T09:15:57;100896.56;;;18.33;32.63
50349;BME280;36250;48.740;22.174;2023-05-10T09:18:23;100888.81;;;18.35;32.60
50349;BME280;36250;48.740;22.174;2023-05-10T09:20:48;100888.97;;;18.05;31.85
50349;BME280;36250;48.740;22.174;2023-05-10T09:23:14;100891.28;;;17.83;34.00
50349;BME280;36250;48.740;22.174;2023-05-10T09:25:41;100878.44;;;18.17;33.49
50349;BME280;36250;48.740;22.174;2023-05-10T09:28:08;100884.94;;;18.46;33.46
50349;BME280;36250;48.740;22.174;2023-05-10T09:30:33;100876.84;;;18.60;31.33
50349;BME280;36250;48.740;22.174;2023-05-10T09:32:59;100878.84;;;18.44;30.95
50349;BME280;36250;48.740;22.174;2023-05-10T09:35:28;100872.38;;;18.20;31.31
50349;BME280;36250;48.740;22.174;2023-05-10T09:37:56;100872.31;;;18.30;32.62
50349;BME280;36250;48.740;22.174;2023-05-10T09:40:26;100877.00;;;18.29;32.46
50349;BME280;36250;48.740;22.174;2023-05-10T09:45:28;100859.13;;;18.66;33.35
50349;BME280;36250;48.740;22.174;2023-05-10T09:47:55;100861.47;;;18.87;31.86
50349;BME280;36250;48.740;22.174;2023-05-10T09:50:22;100863.56;;;18.95;32.02
50349;BME280;36250;48.740;22.174;2023-05-10T09:52:52;100861.06;;;18.99;31.97
50349;BME280;36250;48.740;22.174;2023-05-10T09:55:23;100861.50;;;18.82;31.07
50349;BME280;36250;48.740;22.174;2023-05-10T09:57:49;100856.50;;;18.51;31.25
50349;BME280;36250;48.740;22.174;2023-05-10T10:00:22;100851.34;;;18.34;31.30
50349;BME280;36250;48.740;22.174;2023-05-10T10:02:54;100858.53;;;18.30;32.07
50349;BME280;36250;48.740;22.174;2023-05-10T10:05:20;100852.41;;;18.43;31.47
50349;BME280;36250;48.740;22.174;2023-05-10T10:07:45;100845.16;;;18.57;31.58
50349;BME280;36250;48.740;22.174;2023-05-10T10:10:11;100845.75;;;18.44;31.18
50349;BME280;36250;48.740;22.174;2023-05-10T10:12:39;100841.81;;;18.60;31.82
50349;BME280;36250;48.740;22.174;2023-05-10T10:15:06;100837.06;;;18.99;31.40
50349;BME280;36250;48.740;22.174;2023-05-10T10:17:32;100836.47;;;19.02;31.09
50349;BME280;36250;48.740;22.174;2023-05-10T10:20:02;100825.06;;;19.14;31.27
50349;BME280;36250;48.740;22.174;2023-05-10T10:22:28;100830.50;;;19.48;31.84
50349;BME280;36250;48.740;22.174;2023-05-10T10:24:54;100824.88;;;19.58;29.76
50349;BME280;36250;48.740;22.174;2023-05-10T10:30:06;100824.38;;;18.98;31.31
50349;BME280;36250;48.740;22.174;2023-05-10T10:35:32;100808.88;;;19.31;30.72
50349;BME280;36250;48.740;22.174;2023-05-10T10:37:58;100802.91;;;19.48;31.32
50349;BME280;36250;48.740;22.174;2023-05-10T10:40:28;100807.63;;;19.90;31.11
50349;BME280;36250;48.740;22.174;2023-05-10T10:42:55;100805.91;;;20.12;29.64
50349;BME280;36250;48.740;22.174;2023-05-10T10:45:21;100804.72;;;20.37;28.37
50349;BME280;36250;48.740;22.174;2023-05-10T10:47:47;100802.03;;;20.51;29.77
50349;BME280;36250;48.740;22.174;2023-05-10T10:50:13;100800.28;;;20.73;28.78
50349;BME280;36250;48.740;22.174;2023-05-10T10:52:42;100787.31;;;20.69;27.57
50349;BME280;36250;48.740;22.174;2023-05-10T11:05:39;100783.22;;;20.66;28.04
50349;BME280;36250;48.740;22.174;2023-05-10T11:08:27;100779.47;;;20.44;29.28
50349;BME280;36250;48.740;22.174;2023-05-10T11:15:59;100776.25;;;19.99;28.94
50349;BME280;36250;48.740;22.174;2023-05-10T11:18:36;100776.31;;;19.94;29.60
50349;BME280;36250;48.740;22.174;2023-05-10T11:21:02;100776.69;;;19.88;29.91
50349;BME280;36250;48.740;22.174;2023-05-10T11:23:48;100776.25;;;19.99;30.07
50349;BME280;36250;48.740;22.174;2023-05-10T11:26:14;100773.50;;;19.57;28.51
50349;BME280;36250;48.740;22.174;2023-05-10T11:28:48;100769.81;;;19.43;29.13
50349;BME280;36250;48.740;22.174;2023-05-10T11:31:18;100758.06;;;19.56;29.96
50349;BME280;36250;48.740;22.174;2023-05-10T11:33:52;100760.34;;;20.10;29.43
50349;BME280;36250;48.740;22.174;2023-05-10T11:36:20;100751.97;;;20.34;28.36
50349;BME280;36250;48.740;22.174;2023-05-10T11:38:46;100748.16;;;20.11;28.49
50349;BME280;36250;48.740;22.174;2023-05-10T11:41:11;100748.97;;;20.11;29.79
50349;BME280;36250;48.740;22.174;2023-05-10T11:43:41;100743.75;;;20.28;27.47
50349;BME280;36250;48.740;22.174;2023-05-10T11:46:08;100747.72;;;20.22;28.63
50349;BME280;36250;48.740;22.174;2023-05-10T11:48:34;100739.00;;;20.48;28.78
50349;BME280;36250;48.740;22.174;2023-05-10T11:51:01;100746.13;;;20.67;28.58
50349;BME280;36250;48.740;22.174;2023-05-10T11:53:29;100742.03;;;20.65;28.51
50349;BME280;36250;48.740;22.174;2023-05-10T11:55:54;100740.47;;;21.05;28.56
50349;BME280;36250;48.740;22.174;2023-05-10T11:58:20;100740.47;;;21.18;26.88
50349;BME280;36250;48.740;22.174;2023-05-10T12:00:47;100735.03;;;21.40;27.58
50349;BME280;36250;48.740;22.174;2023-05-10T12:03:13;100735.91;;;21.77;26.89
50349;BME280;36250;48.740;22.174;2023-05-10T12:05:38;100735.31;;;21.93;27.42
50349;BME280;36250;48.740;22.174;2023-05-10T12:08:15;100735.13;;;22.34;26.41
50349;BME280;36250;48.740;22.174;2023-05-10T12:10:44;100728.84;;;22.20;24.65
50349;BME280;36250;48.740;22.174;2023-05-10T12:13:14;100739.13;;;21.70;25.47
50349;BME280;36250;48.740;22.174;2023-05-10T12:15:40;100733.25;;;21.72;25.46
50349;BME280;36250;48.740;22.174;2023-05-10T12:18:08;100726.53;;;21.50;26.98
50349;BME280;36250;48.740;22.174;2023-05-10T12:20:35;100727.03;;;21.66;26.16
50349;BME280;36250;48.740;22.174;2023-05-10T12:23:01;100724.84;;;21.90;26.17
50349;BME280;36250;48.740;22.174;2023-05-10T12:25:33;100719.00;;;22.36;25.84
50349;BME280;36250;48.740;22.174;2023-05-10T12:28:00;100716.09;;;22.41;25.73
50349;BME280;36250;48.740;22.174;2023-05-10T12:30:29;100728.94;;;21.93;25.65
50349;BME280;36250;48.740;22.174;2023-05-10T12:33:06;100724.72;;;21.82;26.28
50349;BME280;36250;48.740;22.174;2023-05-10T12:35:33;100716.06;;;21.61;25.99
50349;BME280;36250;48.740;22.174;2023-05-10T12:37:59;100715.81;;;21.71;26.05
50349;BME280;36250;48.740;22.174;2023-05-10T12:40:24;100711.03;;;21.99;25.11
50349;BME280;36250;48.740;22.174;2023-05-10T12:42:50;100708.28;;;22.21;25.74
50349;BME280;36250;48.740;22.174;2023-05-10T12:45:17;100708.50;;;22.55;24.91
50349;BME280;36250;48.740;22.174;2023-05-10T12:47:42;100701.00;;;22.78;25.77
50349;BME280;36250;48.740;22.174;2023-05-10T12:50:08;100693.66;;;22.60;24.42
50349;BME280;36250;48.740;22.174;2023-05-10T12:52:34;100695.13;;;22.57;24.52
50349;BME280;36250;48.740;22.174;2023-05-10T12:54:59;100691.72;;;22.07;24.93
50349;BME280;36250;48.740;22.174;2023-05-10T12:57:25;100693.78;;;21.66;25.03
50349;BME280;36250;48.740;22.174;2023-05-10T12:59:51;100695.81;;;21.60;25.30
50349;BME280;36250;48.740;22.174;2023-05-10T13:02:16;100693.34;;;21.10;25.74
50349;BME280;36250;48.740;22.174;2023-05-10T13:04:44;100696.97;;;21.32;25.45
50349;BME280;36250;48.740;22.174;2023-05-10T13:07:09;100693.38;;;21.81;26.69
50349;BME280;36250;48.740;22.174;2023-05-10T13:09:35;100687.59;;;22.49;26.31
50349;BME280;36250;48.740;22.174;2023-05-10T13:12:01;100673.31;;;23.04;25.04
50349;BME280;36250;48.740;22.174;2023-05-10T13:14:26;100677.81;;;23.22;23.67
50349;BME280;36250;48.740;22.174;2023-05-10T13:16:52;100678.25;;;22.23;23.91
50349;BME280;36250;48.740;22.174;2023-05-10T13:19:17;100668.72;;;22.38;24.10
50349;BME280;36250;48.740;22.174;2023-05-10T13:21:43;100660.25;;;22.34;24.67